首页
METAR-TAF:

METAR-TAF

机场 :

阿亚库乔, 秘鲁

纬度: 13-08S, 经度: 074-13W, 海拔: 2740米

当前天气观测

该预报发布于1小时和23分钟前的18:00 UTC
风速2节,风向多变
温度 22°C
湿度 27%
气压 1030 hPa
能见度10公里或以上
散云层高于3000英尺

METAR: SPHO 241800Z VRB02KT 9999 SCT030 22/02 Q1030 RMK BIRD HAZARD RWY 02/20 PP000

时间: 14:23 (19:23 UTC)

预报

该预报发布于2小时和23分钟前的17:00 UTC
预报有效从24日的 18点(UTC)到 25日的 18点(UTC)
风速5节,风向东北
能见度10公里或以上
少量云层高于5000英尺
短暂存在
从 24日的 20点(UTC)到 24日的 23点(UTC)
风速15节,风向南转南东

TAF: SPHO 241700Z 2418/2518 05005KT 9999 FEW050 TX23/2419Z TN05/2511Z TEMPO 2420/2423 15015KT

超过4000个机场的气象观测和天气预报(METAR&TAF报告)。

可查询的气象台以黄色和红色小点在地图上表示。

将鼠标移到小点上方,可查看气象台名称。

然后点击查看天气观测和预报。

如需切换地图:点击带黑十字的绿色按钮放大地图;点击带横线的绿色按钮缩小地图;或者点击绿色箭头查看邻近地区的地图。


METAR-TAF: